Time;durP1;ratioP1;P1;durP2;ratioP2;P2;SDS_P1;SDS_P2;PMS_P1;PMS_P2;Temp;Humidity;BMP_temperature;BMP_pressure;BME280_temperature;BME280_humidity;BME280_pressure;Samples;Min_cycle;Max_cycle;Signal;HPM_P1;HPM_P2
2023/07/16 00:02:04;;;;;;;13.88;5.13;;;17.60;99.90;;;;;;5041648;28;20045;-57
2023/07/16 00:04:31;;;;;;;15.18;4.63;;;17.60;99.90;;;;;;5050117;28;20040;-57
2023/07/16 00:06:57;;;;;;;17.15;4.72;;;17.60;99.90;;;;;;5033406;28;20047;-57
2023/07/16 00:09:23;;;;;;;17.17;4.40;;;17.60;99.90;;;;;;5048381;28;20032;-57
2023/07/16 00:11:49;;;;;;;15.15;4.60;;;17.60;99.90;;;;;;5030669;28;20051;-58
2023/07/16 00:14:15;;;;;;;14.43;4.28;;;17.60;99.90;;;;;;5065774;28;20114;-57
2023/07/16 00:16:41;;;;;;;15.73;4.43;;;17.50;99.90;;;;;;5045703;28;20571;-57
2023/07/16 00:19:06;;;;;;;10.10;4.05;;;17.40;99.90;;;;;;5049269;28;20132;-58
2023/07/16 00:21:32;;;;;;;12.88;4.10;;;17.40;99.90;;;;;;5053546;28;20056;-58
2023/07/16 00:23:59;;;;;;;12.13;3.50;;;17.30;99.90;;;;;;5028433;28;20048;-58
2023/07/16 00:26:25;;;;;;;10.13;3.85;;;17.20;99.90;;;;;;5048414;28;20114;-58
2023/07/16 00:28:50;;;;;;;12.25;3.30;;;17.20;99.90;;;;;;5032294;28;20041;-55
2023/07/16 00:31:16;;;;;;;8.32;3.03;;;17.10;99.90;;;;;;5048835;28;20098;-58
2023/07/16 00:33:42;;;;;;;8.73;3.50;;;17.00;99.90;;;;;;5044348;28;20124;-57
2023/07/16 00:36:07;;;;;;;11.15;3.50;;;16.90;99.90;;;;;;5047160;28;20040;-58
2023/07/16 00:38:33;;;;;;;11.23;3.33;;;16.90;99.90;;;;;;5031503;28;20048;-57
2023/07/16 00:40:59;;;;;;;10.20;3.22;;;16.90;99.90;;;;;;5032682;28;20040;-57
2023/07/16 00:43:25;;;;;;;8.02;3.40;;;16.90;99.90;;;;;;5033469;28;20206;-58
2023/07/16 00:45:51;;;;;;;9.45;3.17;;;16.80;99.90;;;;;;5052500;28;20048;-55
2023/07/16 00:48:17;;;;;;;10.55;3.42;;;16.80;99.90;;;;;;5044055;28;20036;-58
2023/07/16 00:50:43;;;;;;;14.38;3.53;;;16.80;99.90;;;;;;5010834;28;20040;-56
2023/07/16 00:53:10;;;;;;;11.18;3.83;;;16.80;99.90;;;;;;5060993;28;20044;-58
2023/07/16 00:55:36;;;;;;;11.35;4.05;;;16.80;99.90;;;;;;5051197;28;20040;-56
2023/07/16 00:58:06;;;;;;;15.55;3.97;;;16.80;99.90;;;;;;5041856;28;20063;-56
2023/07/16 01:00:37;;;;;;;13.27;3.70;;;16.80;99.90;;;;;;5049645;28;20123;-57
2023/07/16 01:03:05;;;;;;;15.25;3.38;;;16.80;99.90;;;;;;5049527;28;20068;-58
2023/07/16 01:05:40;;;;;;;12.35;3.50;;;16.80;99.90;;;;;;5046842;28;20044;-57
2023/07/16 01:08:09;;;;;;;13.30;3.25;;;16.80;99.90;;;;;;5046144;28;20048;-56
2023/07/16 01:10:37;;;;;;;10.07;3.78;;;16.80;99.90;;;;;;5047409;28;20488;-57
2023/07/16 01:13:03;;;;;;;13.05;2.85;;;16.80;99.90;;;;;;5048580;28;20044;-55
2023/07/16 01:15:28;;;;;;;10.48;3.92;;;16.80;99.90;;;;;;5068187;28;20388;-58
2023/07/16 01:17:54;;;;;;;11.45;3.00;;;16.80;99.90;;;;;;5029491;28;20547;-58
2023/07/16 01:20:20;;;;;;;10.98;3.78;;;16.80;99.90;;;;;;5061438;28;20037;-58
2023/07/16 01:23:23;;;;;;;15.88;3.80;;;16.80;99.90;;;;;;5028220;28;20024;-58
2023/07/16 01:26:05;;;;;;;14.10;4.03;;;16.80;99.90;;;;;;5047699;28;20380;-58
2023/07/16 01:29:07;;;;;;;15.50;3.72;;;16.80;99.90;;;;;;5028485;28;20472;-57
2023/07/16 01:31:34;;;;;;;10.88;3.55;;;16.80;99.90;;;;;;5046744;28;20048;-57
2023/07/16 01:34:03;;;;;;;14.30;4.00;;;16.80;99.90;;;;;;5046641;28;20070;-57
2023/07/16 01:36:31;;;;;;;10.73;3.58;;;16.80;99.90;;;;;;5026637;28;20434;-58
2023/07/16 01:38:57;;;;;;;15.60;5.32;;;16.80;99.90;;;;;;5040616;28;20047;-58
2023/07/16 01:41:24;;;;;;;9.27;3.80;;;16.80;99.90;;;;;;5060703;28;20590;-58
2023/07/16 01:43:50;;;;;;;11.48;3.60;;;16.80;99.90;;;;;;5051665;28;20411;-56
2023/07/16 01:46:16;;;;;;;7.85;3.08;;;16.80;99.90;;;;;;5053958;28;20039;-57
2023/07/16 01:48:42;;;;;;;15.73;4.55;;;16.80;99.90;;;;;;5045803;28;20071;-58
2023/07/16 01:51:07;;;;;;;7.70;2.70;;;16.80;99.90;;;;;;5032004;28;20036;-57
2023/07/16 01:53:33;;;;;;;12.63;3.55;;;16.70;99.90;;;;;;5041861;28;20400;-58
2023/07/16 01:56:02;;;;;;;11.82;4.13;;;16.70;99.90;;;;;;5030015;28;20131;-57
2023/07/16 01:58:28;;;;;;;13.77;3.88;;;16.70;99.90;;;;;;5049438;28;20067;-57
2023/07/16 02:00:53;;;;;;;10.38;3.45;;;16.70;99.90;;;;;;5049130;28;20048;-57
2023/07/16 02:03:19;;;;;;;12.10;3.38;;;16.70;99.90;;;;;;5043376;28;20422;-58
2023/07/16 02:05:45;;;;;;;11.52;3.45;;;16.70;99.90;;;;;;5044451;28;20041;-58
2023/07/16 02:08:10;;;;;;;9.05;2.65;;;16.70;99.90;;;;;;5051822;28;20044;-58
2023/07/16 02:10:36;;;;;;;9.57;2.50;;;16.70;99.90;;;;;;5051565;28;20032;-58
2023/07/16 02:13:02;;;;;;;9.75;2.85;;;16.70;99.90;;;;;;5048881;28;20082;-57
2023/07/16 02:15:28;;;;;;;10.18;3.00;;;16.70;99.90;;;;;;5042505;28;20098;-57
2023/07/16 02:17:53;;;;;;;9.73;3.10;;;16.70;99.90;;;;;;5053991;28;20040;-58
2023/07/16 02:20:19;;;;;;;9.23;2.60;;;16.70;99.90;;;;;;5030442;28;20048;-58
2023/07/16 02:22:45;;;;;;;8.73;2.83;;;16.70;99.90;;;;;;5046812;28;20123;-59
2023/07/16 02:25:11;;;;;;;10.43;3.20;;;16.70;99.90;;;;;;5055463;28;20051;-57
2023/07/16 02:27:37;;;;;;;10.95;3.75;;;16.70;99.90;;;;;;5048928;28;20058;-58
2023/07/16 02:30:03;;;;;;;7.05;2.88;;;16.70;99.90;;;;;;5046747;28;20068;-57
2023/07/16 02:32:28;;;;;;;10.95;3.58;;;16.70;99.90;;;;;;5050492;28;20105;-57
2023/07/16 02:34:54;;;;;;;11.88;3.95;;;16.70;99.90;;;;;;5035548;28;20495;-58
2023/07/16 02:37:20;;;;;;;9.65;3.55;;;16.70;99.90;;;;;;5068514;28;20073;-57
2023/07/16 02:39:49;;;;;;;13.35;3.90;;;16.80;99.90;;;;;;5050280;28;20139;-58
2023/07/16 02:42:14;;;;;;;13.75;4.22;;;16.80;99.90;;;;;;5051908;28;20131;-58
2023/07/16 02:44:44;;;;;;;13.18;4.47;;;16.80;99.90;;;;;;5036005;28;20120;-58
2023/07/16 02:47:11;;;;;;;11.05;4.75;;;16.80;99.90;;;;;;5034353;23;20106;-61
2023/07/16 02:49:37;;;;;;;12.40;3.95;;;16.80;99.90;;;;;;5016565;28;20108;-61
2023/07/16 02:52:03;;;;;;;12.65;4.65;;;16.80;99.90;;;;;;5030538;28;20180;-61
2023/07/16 02:54:29;;;;;;;11.57;4.57;;;16.80;99.90;;;;;;4987842;28;20057;-61
2023/07/16 02:56:54;;;;;;;10.43;4.75;;;16.70;99.90;;;;;;5028375;28;20029;-61
2023/07/16 02:59:20;;;;;;;9.93;4.30;;;16.70;99.90;;;;;;5030439;28;20096;-61
2023/07/16 03:01:46;;;;;;;7.78;3.47;;;16.70;99.90;;;;;;5026463;28;20487;-60
2023/07/16 03:04:11;;;;;;;9.90;4.20;;;16.70;99.90;;;;;;5024324;28;20037;-61
2023/07/16 03:06:37;;;;;;;11.32;3.92;;;16.70;99.90;;;;;;5012117;28;20381;-61
2023/07/16 03:09:03;;;;;;;10.40;4.32;;;16.70;99.90;;;;;;5008078;28;20042;-61
2023/07/16 03:11:29;;;;;;;11.13;4.43;;;16.70;99.90;;;;;;5028862;28;20034;-61
2023/07/16 03:13:55;;;;;;;13.27;4.47;;;16.70;99.90;;;;;;5027001;28;20037;-61
2023/07/16 03:16:20;;;;;;;10.13;4.15;;;16.60;99.90;;;;;;5025039;28;20435;-61
2023/07/16 03:18:46;;;;;;;17.05;4.82;;;16.60;99.90;;;;;;5008212;28;20046;-61
2023/07/16 03:21:12;;;;;;;10.50;4.45;;;16.70;99.90;;;;;;5028949;28;20045;-61
2023/07/16 03:23:38;;;;;;;6.70;3.85;;;16.70;99.90;;;;;;5028284;28;20075;-61
2023/07/16 03:26:04;;;;;;;10.63;4.50;;;16.70;99.90;;;;;;5020838;28;20479;-61
2023/07/16 03:28:29;;;;;;;9.57;4.28;;;16.80;99.90;;;;;;5009672;28;20045;-61
2023/07/16 03:30:55;;;;;;;9.45;4.45;;;16.80;99.90;;;;;;5010881;28;20504;-61
2023/07/16 03:33:21;;;;;;;12.20;4.90;;;16.80;99.90;;;;;;5025074;28;20058;-61
2023/07/16 03:35:48;;;;;;;11.05;5.10;;;16.80;99.90;;;;;;5025315;28;20038;-60
2023/07/16 03:38:14;;;;;;;13.15;5.18;;;16.90;99.90;;;;;;5026617;28;20038;-61
2023/07/16 03:40:42;;;;;;;11.18;4.78;;;16.90;99.90;;;;;;5021548;28;20033;-61
2023/07/16 03:43:08;;;;;;;9.25;4.50;;;16.80;99.90;;;;;;5025972;28;20408;-61
2023/07/16 03:45:34;;;;;;;17.25;4.55;;;16.80;99.90;;;;;;5010588;28;20041;-61
2023/07/16 03:48:00;;;;;;;12.30;4.90;;;16.80;99.90;;;;;;5023595;28;20052;-61
2023/07/16 03:50:25;;;;;;;14.25;4.95;;;16.80;99.90;;;;;;5007185;28;20045;-61
2023/07/16 03:52:51;;;;;;;11.18;4.97;;;16.80;99.90;;;;;;5028655;28;20120;-61
2023/07/16 03:55:17;;;;;;;13.73;5.38;;;16.80;99.90;;;;;;5028305;28;20041;-61
2023/07/16 03:57:42;;;;;;;13.98;6.15;;;16.80;99.90;;;;;;5020064;28;20178;-61
2023/07/16 04:00:09;;;;;;;14.50;5.25;;;16.90;99.90;;;;;;5010480;28;20044;-61
2023/07/16 04:02:35;;;;;;;12.05;5.10;;;16.90;99.90;;;;;;5011563;28;20138;-61
2023/07/16 04:05:02;;;;;;;20.02;5.80;;;16.90;99.90;;;;;;5022806;28;20084;-61
2023/07/16 04:07:28;;;;;;;13.40;5.10;;;16.90;99.90;;;;;;5004477;28;20044;-61
2023/07/16 04:09:53;;;;;;;12.65;5.30;;;16.90;99.90;;;;;;5022303;28;20409;-61
2023/07/16 04:12:19;;;;;;;9.10;5.55;;;16.90;99.90;;;;;;5007058;28;20069;-61
2023/07/16 04:14:46;;;;;;;14.65;6.07;;;17.00;99.90;;;;;;4988056;28;20036;-61
2023/07/16 04:17:12;;;;;;;14.40;6.45;;;17.00;99.90;;;;;;5024726;28;20103;-61
2023/07/16 04:19:38;;;;;;;17.42;6.20;;;17.00;99.90;;;;;;5023394;28;20461;-61
2023/07/16 04:22:04;;;;;;;16.13;7.28;;;17.00;99.90;;;;;;5025631;28;20036;-61
2023/07/16 04:24:30;;;;;;;17.10;6.28;;;17.00;99.90;;;;;;5023110;28;20400;-61
2023/07/16 04:26:56;;;;;;;14.88;6.47;;;17.10;99.90;;;;;;5025193;28;20041;-61
2023/07/16 04:29:22;;;;;;;14.65;6.55;;;17.10;99.90;;;;;;5021211;28;20563;-61
2023/07/16 04:31:47;;;;;;;12.65;6.18;;;17.20;99.90;;;;;;5025165;28;20042;-61
2023/07/16 04:34:13;;;;;;;14.23;5.97;;;17.20;99.90;;;;;;5028228;28;20025;-61
2023/07/16 04:36:39;;;;;;;18.05;6.70;;;17.20;99.90;;;;;;5024920;28;20044;-61
2023/07/16 04:39:05;;;;;;;14.35;5.90;;;17.20;99.90;;;;;;5007276;28;20099;-61
2023/07/16 04:41:30;;;;;;;12.18;6.00;;;17.20;99.90;;;;;;5005692;28;20048;-61
2023/07/16 04:43:56;;;;;;;11.20;6.22;;;17.20;99.90;;;;;;5007308;28;20132;-61
2023/07/16 04:46:22;;;;;;;18.70;7.10;;;17.30;99.90;;;;;;5003421;28;20291;-61
2023/07/16 04:48:48;;;;;;;14.00;6.72;;;17.30;99.90;;;;;;5013334;28;20040;-61
2023/07/16 04:51:14;;;;;;;12.50;6.63;;;17.20;99.90;;;;;;5026313;28;20052;-61
2023/07/16 04:53:39;;;;;;;12.30;5.93;;;17.20;99.90;;;;;;5025658;28;20587;-61
2023/07/16 04:56:12;;;;;;;16.27;5.78;;;17.30;99.90;;;;;;5024208;28;20068;-61
2023/07/16 04:58:38;;;;;;;15.10;5.75;;;17.30;99.90;;;;;;5007095;28;20047;-61
2023/07/16 05:01:03;;;;;;;17.58;6.70;;;17.40;99.90;;;;;;5021826;28;20038;-61
2023/07/16 05:03:29;;;;;;;12.80;6.15;;;17.40;99.90;;;;;;5004250;28;20519;-61
2023/07/16 05:05:55;;;;;;;13.32;6.80;;;17.50;99.90;;;;;;5024385;28;20041;-61
2023/07/16 05:08:20;;;;;;;14.85;7.55;;;17.50;99.90;;;;;;4993991;28;20402;-61
2023/07/16 05:10:46;;;;;;;17.60;6.88;;;17.60;99.90;;;;;;5020374;28;20128;-61
2023/07/16 05:13:12;;;;;;;18.67;6.43;;;17.70;99.90;;;;;;5009401;28;20038;-61
2023/07/16 05:15:38;;;;;;;14.40;7.00;;;17.70;99.90;;;;;;5019276;28;20069;-61
2023/07/16 05:18:04;;;;;;;17.42;7.28;;;17.70;99.90;;;;;;5025438;28;20517;-61
2023/07/16 05:20:30;;;;;;;17.08;7.65;;;17.70;99.90;;;;;;5021999;28;20120;-61
2023/07/16 05:22:55;;;;;;;14.18;6.95;;;17.60;99.90;;;;;;5020794;28;20030;-61
2023/07/16 05:25:21;;;;;;;14.38;7.20;;;17.50;99.90;;;;;;4982478;28;20068;-63
2023/07/16 05:27:47;;;;;;;19.85;7.97;;;17.30;99.90;;;;;;5005230;28;20033;-61
2023/07/16 05:30:12;;;;;;;13.05;7.10;;;17.20;99.90;;;;;;5004609;28;20508;-60
2023/07/16 05:32:38;;;;;;;14.70;6.90;;;17.10;99.90;;;;;;4988677;28;20056;-61
2023/07/16 05:35:04;;;;;;;15.23;6.50;;;17.10;99.90;;;;;;5023325;28;20079;-60
2023/07/16 05:37:30;;;;;;;16.20;6.95;;;17.10;99.90;;;;;;5023693;28;20052;-60
2023/07/16 05:39:56;;;;;;;13.10;6.65;;;17.10;99.90;;;;;;5020407;28;20041;-62
2023/07/16 05:42:21;;;;;;;14.00;6.25;;;17.10;99.90;;;;;;4988629;28;20085;-62
2023/07/16 05:44:48;;;;;;;10.98;6.07;;;17.10;99.90;;;;;;5000025;28;20432;-61
2023/07/16 05:47:13;;;;;;;14.45;6.38;;;17.10;99.90;;;;;;5024497;28;20549;-61
2023/07/16 05:49:39;;;;;;;15.75;6.57;;;17.10;99.90;;;;;;5022932;28;20184;-61
2023/07/16 05:52:05;;;;;;;12.55;5.55;;;17.30;99.90;;;;;;5024812;28;20151;-60
2023/07/16 05:54:31;;;;;;;14.65;6.20;;;17.30;99.90;;;;;;5002327;28;20542;-60
2023/07/16 05:56:57;;;;;;;13.48;6.05;;;17.40;99.90;;;;;;5023253;28;20042;-63
2023/07/16 05:59:23;;;;;;;11.13;5.30;;;17.40;99.90;;;;;;4988510;28;20111;-61
2023/07/16 06:01:49;;;;;;;11.32;4.93;;;17.40;99.90;;;;;;4990556;28;20358;-60
2023/07/16 06:04:14;;;;;;;11.13;5.60;;;17.50;99.90;;;;;;5023236;28;20088;-60
2023/07/16 06:06:40;;;;;;;10.50;5.47;;;17.50;99.90;;;;;;5010510;28;20036;-61
2023/07/16 06:09:06;;;;;;;13.85;5.60;;;17.60;99.90;;;;;;5020626;28;20468;-60
2023/07/16 06:11:31;;;;;;;14.18;5.22;;;17.60;99.90;;;;;;5024194;28;20141;-62
2023/07/16 06:13:57;;;;;;;16.40;6.00;;;17.60;99.90;;;;;;5019901;28;20042;-62
2023/07/16 06:16:23;;;;;;;11.50;5.38;;;17.50;99.90;;;;;;5007338;28;20048;-61
2023/07/16 06:18:48;;;;;;;17.25;5.60;;;17.40;99.90;;;;;;4988389;28;20057;-60
2023/07/16 06:21:14;;;;;;;12.70;5.43;;;17.40;99.90;;;;;;5006516;28;20067;-60
2023/07/16 06:23:40;;;;;;;12.07;5.38;;;17.40;99.90;;;;;;5022246;28;20034;-60
2023/07/16 06:26:06;;;;;;;13.38;6.00;;;17.60;99.90;;;;;;5024489;28;20033;-62
2023/07/16 06:28:32;;;;;;;9.88;5.57;;;17.70;99.90;;;;;;5022075;28;20065;-62
2023/07/16 06:30:58;;;;;;;13.48;6.20;;;17.80;99.90;;;;;;5019431;28;20052;-60
2023/07/16 06:33:25;;;;;;;9.35;5.43;;;17.90;99.90;;;;;;5013497;28;20038;-60
2023/07/16 06:35:51;;;;;;;12.30;6.05;;;18.00;99.90;;;;;;5021143;28;20026;-61
2023/07/16 06:38:16;;;;;;;14.85;5.68;;;18.00;99.90;;;;;;5020721;28;20500;-60
2023/07/16 06:40:52;;;;;;;15.05;6.32;;;18.10;99.90;;;;;;5019996;28;20034;-60
2023/07/16 06:43:18;;;;;;;15.13;6.18;;;18.10;99.90;;;;;;5024916;28;20038;-60
2023/07/16 06:45:44;;;;;;;12.82;6.20;;;18.10;99.90;;;;;;5022517;28;20507;-62
2023/07/16 06:48:09;;;;;;;17.02;6.38;;;18.20;99.90;;;;;;5025103;28;20042;-60
2023/07/16 06:50:35;;;;;;;15.52;6.13;;;18.20;99.90;;;;;;5020052;28;20029;-60
2023/07/16 06:53:01;;;;;;;9.52;5.60;;;18.30;99.90;;;;;;5023176;28;20045;-60
2023/07/16 06:55:27;;;;;;;10.02;5.50;;;18.20;99.90;;;;;;4988251;28;20046;-62
2023/07/16 06:57:52;;;;;;;13.98;6.22;;;18.30;99.90;;;;;;5003510;28;20053;-62
2023/07/16 07:00:18;;;;;;;9.50;5.25;;;18.40;99.90;;;;;;5004779;28;20041;-62
2023/07/16 07:02:44;;;;;;;11.40;5.63;;;18.40;99.90;;;;;;4971966;28;20489;-62
2023/07/16 07:05:10;;;;;;;16.70;6.25;;;18.40;99.90;;;;;;4988550;28;20437;-62
2023/07/16 07:07:35;;;;;;;13.90;6.63;;;18.30;99.90;;;;;;5019291;28;20034;-62
2023/07/16 07:10:01;;;;;;;13.02;5.70;;;18.30;99.90;;;;;;5003011;28;20127;-62
2023/07/16 07:12:27;;;;;;;13.73;5.82;;;18.30;99.90;;;;;;5022388;28;20066;-62
2023/07/16 07:14:53;;;;;;;13.55;5.25;;;18.20;99.90;;;;;;5024979;28;20121;-62
2023/07/16 07:17:18;;;;;;;14.38;5.43;;;18.20;99.90;;;;;;5022358;28;20033;-62
2023/07/16 07:19:44;;;;;;;12.00;4.80;;;18.30;99.90;;;;;;5024431;28;20095;-62
2023/07/16 07:22:10;;;;;;;12.23;5.22;;;18.30;99.90;;;;;;5025156;28;20060;-62
2023/07/16 07:24:36;;;;;;;14.60;6.28;;;18.50;99.90;;;;;;5012350;28;20468;-62
2023/07/16 07:27:02;;;;;;;15.40;5.30;;;18.60;99.90;;;;;;5024240;28;20029;-62
2023/07/16 07:29:28;;;;;;;13.57;5.05;;;18.60;99.90;;;;;;5010050;28;20037;-62
2023/07/16 07:31:54;;;;;;;14.10;4.72;;;18.60;99.90;;;;;;5024979;28;20041;-63
2023/07/16 07:34:19;;;;;;;12.85;5.10;;;18.60;99.90;;;;;;5006122;28;20198;-62
2023/07/16 07:36:46;;;;;;;12.73;6.25;;;18.70;99.90;;;;;;5023047;28;20045;-62
2023/07/16 07:39:13;;;;;;;14.35;5.70;;;18.80;99.90;;;;;;5008868;28;20037;-62
2023/07/16 07:41:39;;;;;;;10.90;5.10;;;18.90;99.90;;;;;;5008742;28;20068;-62
2023/07/16 07:44:05;;;;;;;10.20;4.63;;;19.00;99.90;;;;;;5004306;28;20572;-62
2023/07/16 07:46:30;;;;;;;12.50;5.07;;;19.20;99.90;;;;;;5007278;28;20044;-62
2023/07/16 07:48:56;;;;;;;13.50;5.43;;;19.20;99.90;;;;;;5024714;28;20446;-63
2023/07/16 07:51:22;;;;;;;12.75;4.90;;;19.20;99.90;;;;;;5000962;28;20515;-61
2023/07/16 07:53:48;;;;;;;13.02;4.47;;;19.00;99.90;;;;;;5025854;28;20091;-62
2023/07/16 07:56:14;;;;;;;8.45;4.40;;;18.90;99.90;;;;;;5024173;28;20092;-62
2023/07/16 07:58:40;;;;;;;10.50;4.70;;;18.90;99.90;;;;;;5009849;28;20511;-64
2023/07/16 08:01:08;;;;;;;9.27;4.38;;;19.10;99.90;;;;;;5026204;28;20041;-62
2023/07/16 08:03:35;;;;;;;13.25;4.85;;;19.10;99.90;;;;;;5026158;28;20346;-61
2023/07/16 08:06:00;;;;;;;11.10;4.95;;;19.30;99.90;;;;;;5023611;28;20475;-64
2023/07/16 08:08:26;;;;;;;10.10;5.10;;;19.50;99.90;;;;;;5010190;28;20125;-64
2023/07/16 08:10:53;;;;;;;10.32;5.10;;;19.50;99.90;;;;;;5025204;28;20029;-64
2023/07/16 08:13:19;;;;;;;11.68;4.95;;;19.40;99.90;;;;;;5005170;28;20116;-64
2023/07/16 08:15:44;;;;;;;15.30;6.30;;;19.50;99.90;;;;;;5025306;28;20041;-64
2023/07/16 08:18:11;;;;;;;10.50;5.53;;;19.60;99.90;;;;;;5004697;28;20033;-64
2023/07/16 08:20:37;;;;;;;11.63;5.40;;;19.60;99.90;;;;;;5025172;28;20128;-63
2023/07/16 08:23:02;;;;;;;14.43;5.35;;;19.70;99.90;;;;;;5005916;28;20583;-63
2023/07/16 08:25:28;;;;;;;11.70;5.05;;;19.80;99.90;;;;;;5001946;28;20053;-62
2023/07/16 08:27:54;;;;;;;11.32;5.70;;;20.00;99.90;;;;;;5002828;28;20037;-63
2023/07/16 08:30:20;;;;;;;11.20;5.45;;;20.10;99.90;;;;;;5024410;28;20049;-63
2023/07/16 08:32:46;;;;;;;13.90;6.32;;;20.10;99.90;;;;;;5021562;28;20097;-62
2023/07/16 08:35:16;;;;;;;16.38;5.45;;;20.10;99.90;;;;;;5010996;28;20034;-62
2023/07/16 08:37:42;;;;;;;12.40;5.68;;;20.10;99.90;;;;;;5027713;28;20045;-63
2023/07/16 08:40:09;;;;;;;13.63;4.97;;;20.10;99.90;;;;;;5025415;28;20041;-62
2023/07/16 08:42:40;;;;;;;12.98;5.93;;;20.10;99.90;;;;;;5008675;28;20361;-62
2023/07/16 08:45:10;;;;;;;10.50;5.93;;;20.00;99.90;;;;;;5006486;28;20384;-63
2023/07/16 08:47:36;;;;;;;14.68;5.90;;;20.00;99.90;;;;;;4992710;28;20444;-60
2023/07/16 08:50:03;;;;;;;15.07;5.63;;;20.00;99.90;;;;;;5007828;28;20412;-62
2023/07/16 08:52:30;;;;;;;16.55;5.75;;;20.00;99.90;;;;;;4992623;28;20038;-62
2023/07/16 08:54:55;;;;;;;18.92;5.88;;;19.80;99.90;;;;;;4976060;28;20045;-63
2023/07/16 08:57:22;;;;;;;12.43;5.38;;;19.90;99.90;;;;;;5012916;28;20044;-63
2023/07/16 08:59:49;;;;;;;12.57;5.18;;;19.90;99.90;;;;;;4985865;28;20042;-63
2023/07/16 09:02:19;;;;;;;11.57;4.63;;;20.00;99.90;;;;;;5007537;28;20126;-60
2023/07/16 09:04:49;;;;;;;10.38;4.57;;;20.00;99.90;;;;;;4999170;28;20076;-63
2023/07/16 09:07:15;;;;;;;11.85;5.80;;;19.90;99.90;;;;;;5011581;28;20079;-63
2023/07/16 09:09:41;;;;;;;13.00;6.07;;;20.00;99.90;;;;;;5018293;28;20045;-63
2023/07/16 09:12:12;;;;;;;12.27;5.50;;;20.00;99.90;;;;;;5027920;28;20092;-63
2023/07/16 09:14:37;;;;;;;10.95;5.57;;;20.20;99.90;;;;;;4990680;28;20041;-63
2023/07/16 09:17:03;;;;;;;11.10;5.15;;;20.30;99.90;;;;;;5004882;28;20063;-63
2023/07/16 09:19:32;;;;;;;11.32;5.32;;;20.50;99.90;;;;;;5008107;28;20203;-61
2023/07/16 09:21:58;;;;;;;11.63;5.28;;;20.60;99.90;;;;;;4991791;28;20488;-62
2023/07/16 09:24:24;;;;;;;13.43;4.70;;;20.70;99.90;;;;;;5007662;28;20056;-62
2023/07/16 09:26:51;;;;;;;13.10;4.78;;;20.80;99.90;;;;;;5001575;28;20033;-62
2023/07/16 09:29:17;;;;;;;14.95;5.13;;;20.80;99.90;;;;;;5006689;28;20488;-61
2023/07/16 09:32:10;;;;;;;15.82;6.15;;;20.90;99.90;;;;;;5025210;28;20041;-62
2023/07/16 09:34:36;;;;;;;17.80;5.10;;;20.70;99.90;;;;;;5026198;28;20068;-64
2023/07/16 09:37:02;;;;;;;13.05;5.07;;;20.60;99.90;;;;;;5003927;28;20073;-60
2023/07/16 09:39:28;;;;;;;16.90;5.40;;;20.70;99.90;;;;;;5031658;28;20053;-63
2023/07/16 09:41:57;;;;;;;10.02;4.57;;;20.90;99.90;;;;;;5022809;28;20038;-62
2023/07/16 09:44:22;;;;;;;12.85;5.13;;;21.00;99.90;;;;;;5011083;28;20045;-63
2023/07/16 09:46:48;;;;;;;9.27;4.50;;;21.00;99.90;;;;;;5024614;28;20091;-62
2023/07/16 09:49:15;;;;;;;14.68;4.78;;;20.80;99.90;;;;;;5006912;28;20467;-63
2023/07/16 09:51:43;;;;;;;11.23;4.95;;;20.70;99.90;;;;;;5024308;28;20037;-64
2023/07/16 09:54:12;;;;;;;10.60;5.13;;;20.60;99.90;;;;;;4998504;28;20033;-63
2023/07/16 09:56:46;;;;;;;11.52;5.57;;;20.60;99.90;;;;;;5020955;28;20046;-63
2023/07/16 09:59:16;;;;;;;12.10;5.28;;;20.60;99.90;;;;;;5024183;28;20042;-63
2023/07/16 10:01:41;;;;;;;13.88;5.25;;;20.70;99.90;;;;;;5020294;28;20045;-63
2023/07/16 10:04:15;;;;;;;11.05;5.35;;;20.70;99.90;;;;;;4993853;28;20441;-66
2023/07/16 10:06:55;;;;;;;13.80;5.72;;;20.60;99.90;;;;;;4996107;28;20046;-63
2023/07/16 10:09:36;;;;;;;12.43;5.25;;;20.60;99.90;;;;;;4996922;28;20045;-64
2023/07/16 10:12:15;;;;;;;8.95;5.68;;;20.50;99.90;;;;;;5009327;28;20045;-60
2023/07/16 10:14:47;;;;;;;10.88;5.05;;;20.50;99.90;;;;;;4975749;28;20555;-61
2023/07/16 10:17:15;;;;;;;11.63;4.47;;;20.40;99.90;;;;;;5019687;28;20049;-64
2023/07/16 10:19:57;;;;;;;15.00;4.97;;;20.20;99.70;;;;;;5016792;28;20048;-63
2023/07/16 10:22:33;;;;;;;10.30;4.45;;;20.10;99.70;;;;;;4998507;28;20559;-61
2023/07/16 10:25:00;;;;;;;11.20;4.30;;;20.00;99.80;;;;;;5013459;28;20045;-63
2023/07/16 10:27:34;;;;;;;10.02;3.47;;;20.10;99.90;;;;;;4993837;28;20038;-63
2023/07/16 10:30:04;;;;;;;9.35;4.13;;;20.20;99.90;;;;;;5012094;28;20342;-64
2023/07/16 10:32:32;;;;;;;13.23;4.68;;;20.40;99.70;;;;;;5009991;28;20136;-63
2023/07/16 10:34:58;;;;;;;9.02;3.67;;;20.70;99.90;;;;;;4997850;28;20080;-64
2023/07/16 10:37:25;;;;;;;10.13;3.92;;;20.90;99.60;;;;;;5013799;28;20064;-64
2023/07/16 10:39:53;;;;;;;10.52;4.15;;;20.80;99.20;;;;;;5000760;28;20504;-63
2023/07/16 10:42:20;;;;;;;10.98;4.03;;;20.70;99.00;;;;;;4980494;28;20051;-63
2023/07/16 10:44:52;;;;;;;9.20;3.78;;;20.60;99.10;;;;;;5009374;28;20037;-63
2023/07/16 10:47:22;;;;;;;13.48;3.90;;;20.60;98.90;;;;;;5015721;28;20041;-64
2023/07/16 10:49:48;;;;;;;11.75;4.07;;;20.70;98.90;;;;;;5016369;28;20042;-65
2023/07/16 10:52:14;;;;;;;10.02;3.38;;;21.00;98.70;;;;;;5020228;28;20416;-63
2023/07/16 10:54:42;;;;;;;12.13;4.18;;;21.10;98.70;;;;;;4985565;28;20037;-63
2023/07/16 10:57:09;;;;;;;14.32;4.60;;;21.10;98.60;;;;;;5020202;28;20049;-63
2023/07/16 10:59:38;;;;;;;10.25;3.85;;;20.80;97.70;;;;;;5021303;28;20044;-62
2023/07/16 11:02:05;;;;;;;9.52;3.95;;;20.80;98.00;;;;;;5020672;28;20120;-64
2023/07/16 11:04:35;;;;;;;14.43;4.32;;;20.70;97.80;;;;;;5017398;28;20041;-63
2023/07/16 11:07:08;;;;;;;10.73;4.18;;;20.70;97.70;;;;;;5004397;28;20041;-63
2023/07/16 11:09:34;;;;;;;7.53;3.35;;;20.90;97.40;;;;;;5000344;28;20946;-63
2023/07/16 11:12:14;;;;;;;10.35;3.47;;;21.00;96.00;;;;;;5019065;28;20033;-63
2023/07/16 11:14:45;;;;;;;10.75;3.83;;;21.10;97.00;;;;;;4997956;28;20126;-63
2023/07/16 11:17:11;;;;;;;10.93;4.13;;;21.10;97.40;;;;;;5000866;28;20056;-64
2023/07/16 11:19:38;;;;;;;11.27;4.22;;;21.10;98.00;;;;;;5016308;28;20041;-63
2023/07/16 11:22:05;;;;;;;12.82;3.75;;;21.20;97.50;;;;;;4989087;28;20575;-63
2023/07/16 11:24:47;;;;;;;12.38;3.63;;;21.10;97.20;;;;;;5001678;28;20080;-63
2023/07/16 11:27:14;;;;;;;9.77;3.80;;;21.20;96.40;;;;;;5024735;28;20038;-63
2023/07/16 11:29:44;;;;;;;9.65;4.03;;;21.20;96.40;;;;;;5005027;28;20103;-63
2023/07/16 11:32:10;;;;;;;11.82;4.07;;;21.10;96.60;;;;;;5005583;28;20056;-60
2023/07/16 11:34:36;;;;;;;12.35;3.75;;;21.00;96.80;;;;;;5019320;28;20037;-63
2023/07/16 11:37:09;;;;;;;13.50;3.90;;;21.10;97.10;;;;;;5002392;28;20120;-64
2023/07/16 11:39:35;;;;;;;12.10;3.83;;;21.40;97.10;;;;;;5014484;28;20048;-64
2023/07/16 11:42:04;;;;;;;9.57;3.70;;;21.40;96.80;;;;;;5015596;28;20029;-62
2023/07/16 11:44:34;;;;;;;15.40;4.22;;;21.40;97.00;;;;;;5021549;28;20033;-62
2023/07/16 11:47:01;;;;;;;11.68;3.42;;;21.40;96.90;;;;;;5019774;28;20424;-62
2023/07/16 11:49:26;;;;;;;11.07;3.25;;;21.40;97.30;;;;;;5008452;28;20056;-66
2023/07/16 11:51:52;;;;;;;14.38;4.07;;;21.30;97.10;;;;;;5004383;28;21382;-62
2023/07/16 11:54:18;;;;;;;13.20;3.40;;;21.10;96.60;;;;;;5013954;28;20076;-63
2023/07/16 11:56:43;;;;;;;12.82;4.35;;;21.10;97.10;;;;;;4993234;28;20428;-61
2023/07/16 11:59:09;;;;;;;15.90;3.90;;;21.00;97.40;;;;;;5005736;28;20107;-61
2023/07/16 12:01:35;;;;;;;13.13;3.92;;;21.10;97.50;;;;;;5018054;28;20669;-61
2023/07/16 12:04:00;;;;;;;14.00;4.60;;;21.20;97.20;;;;;;5015807;28;20068;-63
2023/07/16 12:06:26;;;;;;;14.05;3.63;;;21.40;97.40;;;;;;5008442;28;20462;-63
2023/07/16 12:08:52;;;;;;;13.27;3.85;;;21.40;97.30;;;;;;4989097;28;20107;-63
2023/07/16 12:11:17;;;;;;;12.35;4.22;;;21.40;97.60;;;;;;4979502;28;20072;-63
2023/07/16 12:13:46;;;;;;;12.30;4.30;;;21.40;97.40;;;;;;5015250;28;20598;-60
2023/07/16 12:16:12;;;;;;;10.45;4.28;;;21.10;97.30;;;;;;5020063;28;20415;-63
2023/07/16 12:18:37;;;;;;;10.50;4.22;;;21.10;98.00;;;;;;5002853;28;20120;-61
2023/07/16 12:21:03;;;;;;;11.23;3.72;;;21.00;98.50;;;;;;4999754;28;20041;-60
2023/07/16 12:23:29;;;;;;;13.13;4.38;;;20.90;98.80;;;;;;5022361;28;20191;-60
2023/07/16 12:25:54;;;;;;;13.15;4.70;;;20.80;99.10;;;;;;5021330;28;20140;-59
2023/07/16 12:28:20;;;;;;;10.68;4.07;;;20.70;98.90;;;;;;5004589;28;20068;-60
2023/07/16 12:30:46;;;;;;;13.13;4.28;;;20.70;99.20;;;;;;5001128;28;20111;-60
2023/07/16 12:33:11;;;;;;;13.38;5.47;;;20.70;99.30;;;;;;5020547;28;20033;-60
2023/07/16 12:35:37;;;;;;;15.20;4.18;;;20.70;99.20;;;;;;5022271;28;20048;-60
2023/07/16 12:38:03;;;;;;;15.15;4.00;;;20.90;98.70;;;;;;5003241;28;20559;-61